createdAt,value
2018-09-09T00:01:25.035Z,101812.91
2018-09-09T00:03:52.764Z,101815.52
2018-09-09T00:06:20.473Z,101820.72
2018-09-09T00:08:48.212Z,101823.25
2018-09-09T00:11:15.906Z,101818.70
2018-09-09T00:13:43.592Z,101815.58
2018-09-09T00:16:11.343Z,101823.52
2018-09-09T00:18:39.006Z,101823.89
2018-09-09T00:21:06.392Z,101827.84
2018-09-09T00:23:34.088Z,101823.38
2018-09-09T00:26:01.827Z,101819.25
2018-09-09T00:28:29.505Z,101821.37
2018-09-09T00:30:57.216Z,101822.56
2018-09-09T00:33:25.004Z,101819.38
2018-09-09T00:35:52.726Z,101823.70
2018-09-09T00:38:20.424Z,101821.77
2018-09-09T00:40:48.173Z,101823.89
2018-09-09T00:43:15.861Z,101828.16
2018-09-09T00:45:43.558Z,101825.77
2018-09-09T00:48:11.244Z,101828.29
2018-09-09T00:50:44.519Z,101830.41
2018-09-09T00:53:17.805Z,101828.93
2018-09-09T00:55:45.503Z,101816.87
2018-09-09T00:58:13.195Z,101816.33
2018-09-09T01:00:46.670Z,101818.02
2018-09-09T01:03:14.379Z,101817.05
2018-09-09T01:05:42.131Z,101822.25
2018-09-09T01:08:09.811Z,101817.78
2018-09-09T01:10:37.512Z,101813.72
2018-09-09T01:13:05.470Z,101824.31
2018-09-09T01:15:33.175Z,101819.84
2018-09-09T01:18:00.852Z,101821.59
2018-09-09T01:20:28.592Z,101826.37
2018-09-09T01:22:56.345Z,101824.52
2018-09-09T01:25:24.048Z,101824.43
2018-09-09T01:27:51.731Z,101831.97
2018-09-09T01:30:19.475Z,101830.58
2018-09-09T01:32:47.198Z,101832.38
2018-09-09T01:35:14.916Z,101832.29
2018-09-09T01:37:42.635Z,101830.95
2018-09-09T01:40:10.352Z,101830.95
2018-09-09T01:42:38.061Z,101833.63
2018-09-09T01:45:05.870Z,101842.91
2018-09-09T01:47:33.592Z,101831.36
2018-09-09T01:50:01.339Z,101830.34
2018-09-09T01:52:29.064Z,101825.48
2018-09-09T01:54:56.769Z,101827.77
2018-09-09T01:57:24.472Z,101825.97
2018-09-09T01:59:52.171Z,101825.10
2018-09-09T02:02:19.913Z,101826.90
2018-09-09T02:04:47.648Z,101820.63
2018-09-09T02:07:15.344Z,101826.44
2018-09-09T02:09:43.123Z,101820.23
2018-09-09T02:12:10.839Z,101825.56
2018-09-09T02:14:38.624Z,101821.97
2018-09-09T02:17:06.319Z,101825.02
2018-09-09T02:19:34.040Z,101827.83
2018-09-09T02:22:01.775Z,101825.16
2018-09-09T02:24:29.509Z,101824.38
2018-09-09T02:26:57.454Z,101830.17
2018-09-09T02:29:25.156Z,101827.97
2018-09-09T02:31:52.883Z,101831.10
2018-09-09T02:34:20.619Z,101831.97
2018-09-09T02:36:48.318Z,101830.78
2018-09-09T02:39:15.987Z,101821.50
2018-09-09T02:41:43.788Z,101828.16
2018-09-09T02:44:11.622Z,101822.05
2018-09-09T02:46:39.341Z,101819.98
2018-09-09T02:49:07.072Z,101815.58
2018-09-09T02:51:34.776Z,101815.98
2018-09-09T02:54:02.523Z,101808.07
2018-09-09T02:56:30.216Z,101808.12
2018-09-09T02:58:57.930Z,101809.87
2018-09-09T03:01:25.659Z,101809.41
2018-09-09T03:03:53.368Z,101813.00
2018-09-09T03:06:21.116Z,101810.33
2018-09-09T03:08:48.806Z,101813.88
2018-09-09T03:11:16.501Z,101808.45
2018-09-09T03:13:45.247Z,101809.31
2018-09-09T03:16:12.967Z,101805.78
2018-09-09T03:18:41.556Z,101811.20
2018-09-09T03:21:09.328Z,101810.33
2018-09-09T03:23:37.063Z,101804.67
2018-09-09T03:26:04.779Z,101806.47
2018-09-09T03:28:33.148Z,101806.01
2018-09-09T03:31:00.924Z,101806.94
2018-09-09T03:33:28.628Z,101807.86
2018-09-09T03:35:56.391Z,101809.19
2018-09-09T03:38:24.082Z,101814.16
2018-09-09T03:40:51.802Z,101815.34
2018-09-09T03:43:19.539Z,101814.84
2018-09-09T03:45:47.544Z,101817.52
2018-09-09T03:48:15.245Z,101815.34
2018-09-09T03:50:43.008Z,101809.60
2018-09-09T03:53:10.703Z,101815.34
2018-09-09T03:55:38.380Z,101816.59
2018-09-09T03:58:06.115Z,101814.80
2018-09-09T04:00:33.799Z,101819.58
2018-09-09T04:03:01.486Z,101818.66
2018-09-09T04:05:29.212Z,101819.52
2018-09-09T04:07:56.926Z,101818.97
2018-09-09T04:10:24.640Z,101824.77
2018-09-09T04:12:52.339Z,101826.20
2018-09-09T04:15:20.068Z,101823.06
2018-09-09T04:17:47.813Z,101821.73
2018-09-09T04:20:15.527Z,101819.84
2018-09-09T04:22:43.263Z,101826.92
2018-09-09T04:25:10.951Z,101828.16
2018-09-09T04:27:38.636Z,101826.78
2018-09-09T04:30:06.604Z,101822.77
2018-09-09T04:32:34.315Z,101823.19
2018-09-09T04:35:02.159Z,101830.23
2018-09-09T04:37:29.897Z,101826.69
2018-09-09T04:39:57.625Z,101822.63
2018-09-09T04:42:25.353Z,101819.09
2018-09-09T04:44:53.108Z,101818.58
2018-09-09T04:47:20.808Z,101816.83
2018-09-09T04:49:48.548Z,101818.08
2018-09-09T04:52:16.284Z,101822.44
2018-09-09T04:54:43.983Z,101825.48
2018-09-09T04:57:11.746Z,101820.48
2018-09-09T04:59:39.480Z,101822.05
2018-09-09T05:02:07.192Z,101823.39
2018-09-09T05:04:34.966Z,101820.25
2018-09-09T05:07:02.668Z,101821.13
2018-09-09T05:09:30.416Z,101820.05
2018-09-09T05:11:58.140Z,101825.80
2018-09-09T05:14:25.822Z,101836.39
2018-09-09T05:16:53.541Z,101833.66
2018-09-09T05:19:21.351Z,101830.84
2018-09-09T05:21:49.080Z,101829.36
2018-09-09T05:24:16.834Z,101827.47
2018-09-09T05:26:44.536Z,101831.42
2018-09-09T05:29:12.225Z,101829.63
2018-09-09T05:31:39.916Z,101831.80
2018-09-09T05:34:07.639Z,101833.02
2018-09-09T05:36:35.402Z,101834.26
2018-09-09T05:39:03.597Z,101834.66
2018-09-09T05:41:31.334Z,101828.77
2018-09-09T05:43:59.080Z,101835.33
2018-09-09T05:46:26.804Z,101833.94
2018-09-09T05:48:54.496Z,101830.25
2018-09-09T05:51:22.204Z,101835.53
2018-09-09T05:53:49.976Z,101837.70
2018-09-09T05:56:17.708Z,101843.13
2018-09-09T05:58:45.432Z,101838.98
2018-09-09T06:01:13.246Z,101843.45
2018-09-09T06:03:40.984Z,101852.18
2018-09-09T06:06:08.719Z,101848.58
2018-09-09T06:08:36.421Z,101848.12
2018-09-09T06:11:04.187Z,101843.70
2018-09-09T06:13:31.916Z,101842.11
2018-09-09T06:15:59.684Z,101845.50
2018-09-09T06:18:27.405Z,101846.78
2018-09-09T06:20:55.120Z,101841.44
2018-09-09T06:23:22.873Z,101845.45
2018-09-09T06:25:50.674Z,101845.76
2018-09-09T06:28:18.443Z,101847.00
2018-09-09T06:30:46.131Z,101843.00
2018-09-09T06:33:13.862Z,101847.16
2018-09-09T06:35:41.582Z,101859.02
2018-09-09T06:38:09.319Z,101863.90
2018-09-09T06:40:37.066Z,101858.41
2018-09-09T06:43:04.893Z,101852.59
2018-09-09T06:45:32.629Z,101856.55
2018-09-09T06:48:00.328Z,101854.41
2018-09-09T06:50:28.051Z,101857.22
2018-09-09T06:52:55.774Z,101851.01
2018-09-09T06:55:23.630Z,101851.36
2018-09-09T06:57:51.324Z,101852.19
2018-09-09T07:00:19.012Z,101854.95
2018-09-09T07:02:46.757Z,101851.88
2018-09-09T07:05:14.487Z,101851.51
2018-09-09T07:07:42.211Z,101851.51
2018-09-09T07:10:09.983Z,101850.02
2018-09-09T07:12:37.732Z,101852.19
2018-09-09T07:15:05.738Z,101853.78
2018-09-09T07:17:33.477Z,101851.11
2018-09-09T07:20:01.174Z,101847.66
2018-09-09T07:22:28.964Z,101853.41
2018-09-09T07:24:56.749Z,101851.52
2018-09-09T07:27:24.460Z,101859.38
2018-09-09T07:29:52.168Z,101855.78
2018-09-09T07:32:19.975Z,101855.84
2018-09-09T07:34:47.712Z,101855.53
2018-09-09T07:37:15.544Z,101857.73
2018-09-09T07:39:43.270Z,101859.38
2018-09-09T07:42:11.060Z,101855.16
2018-09-09T07:44:38.804Z,101861.28
2018-09-09T07:47:06.689Z,101867.91
2018-09-09T07:49:34.411Z,101857.74
2018-09-09T07:52:02.120Z,101858.30
2018-09-09T07:54:29.866Z,101861.23
2018-09-09T07:56:57.580Z,101861.28
2018-09-09T07:59:25.276Z,101866.16
2018-09-09T08:01:53.053Z,101867.81
2018-09-09T08:04:20.773Z,101866.41
2018-09-09T08:06:48.472Z,101873.81
2018-09-09T08:09:16.199Z,101866.73
2018-09-09T08:11:43.926Z,101869.15
2018-09-09T08:14:11.646Z,101862.56
2018-09-09T08:16:39.390Z,101858.92
2018-09-09T08:19:07.111Z,101865.55
2018-09-09T08:21:35.084Z,101860.83
2018-09-09T08:24:02.912Z,101857.94
2018-09-09T08:26:30.628Z,101860.52
2018-09-09T08:28:58.341Z,101863.84
2018-09-09T08:31:26.060Z,101861.89
2018-09-09T08:33:54.017Z,101863.95
2018-09-09T08:36:21.736Z,101863.23
2018-09-09T08:38:49.453Z,101864.10
2018-09-09T08:41:17.153Z,101859.69
2018-09-09T08:43:44.946Z,101861.73
2018-09-09T08:46:12.693Z,101856.70
2018-09-09T08:48:40.375Z,101860.09
2018-09-09T08:51:08.183Z,101857.58
2018-09-09T08:53:35.987Z,101851.98
2018-09-09T08:56:03.745Z,101856.23
2018-09-09T08:58:31.449Z,101853.00
2018-09-09T09:00:59.558Z,101849.70
2018-09-09T09:03:27.279Z,101862.91
2018-09-09T09:05:55.013Z,101855.23
2018-09-09T09:08:22.740Z,101849.02
2018-09-09T09:10:50.495Z,101858.06
2018-09-09T09:13:18.244Z,101852.31
2018-09-09T09:15:46.020Z,101858.06
2018-09-09T09:18:13.748Z,101857.03
2018-09-09T09:20:41.519Z,101859.40
2018-09-09T09:23:09.355Z,101861.45
2018-09-09T09:25:41.549Z,101856.10
2018-09-09T09:28:09.332Z,101863.72
2018-09-09T09:30:37.124Z,101873.16
2018-09-09T09:33:04.882Z,101867.75
2018-09-09T09:35:38.159Z,101873.41
2018-09-09T09:38:05.911Z,101870.88
2018-09-09T09:40:33.684Z,101872.69
2018-09-09T09:43:01.378Z,101866.97
2018-09-09T09:45:29.134Z,101872.30
2018-09-09T09:47:56.888Z,101871.14
2018-09-09T09:50:24.652Z,101869.67
2018-09-09T09:52:52.391Z,101866.44
2018-09-09T09:55:20.158Z,101866.27
2018-09-09T09:57:47.916Z,101860.58
2018-09-09T10:00:21.328Z,101856.03
2018-09-09T10:02:49.060Z,101861.30
2018-09-09T10:05:16.825Z,101850.84
2018-09-09T10:07:44.695Z,101856.44
2018-09-09T10:10:12.406Z,101866.13
2018-09-09T10:12:40.168Z,101858.64
2018-09-09T10:15:08.049Z,101863.92
2018-09-09T10:17:35.761Z,101864.86
2018-09-09T10:20:03.692Z,101873.59
2018-09-09T10:22:31.573Z,101875.23
2018-09-09T10:24:59.256Z,101877.75
2018-09-09T10:27:27.076Z,101876.65
2018-09-09T10:29:55.073Z,101867.52
2018-09-09T10:32:22.939Z,101866.98
2018-09-09T10:34:50.677Z,101871.30
2018-09-09T10:37:18.380Z,101877.45
2018-09-09T10:39:46.092Z,101870.36
2018-09-09T10:42:13.862Z,101872.24
2018-09-09T10:44:41.593Z,101863.18
2018-09-09T10:47:09.339Z,101866.27
2018-09-09T10:49:37.125Z,101861.44
2018-09-09T10:52:04.816Z,101864.92
2018-09-09T10:54:32.565Z,101865.23
2018-09-09T10:57:00.261Z,101865.16
2018-09-09T10:59:27.968Z,101865.30
2018-09-09T11:01:55.733Z,101856.94
2018-09-09T11:04:23.444Z,101862.42
2018-09-09T11:06:51.296Z,101865.73
2018-09-09T11:09:19.025Z,101862.81
2018-09-09T11:11:46.728Z,101864.05
2018-09-09T11:14:14.509Z,101859.09
2018-09-09T11:16:42.440Z,101866.33
2018-09-09T11:19:10.172Z,101862.31
2018-09-09T11:21:37.934Z,101862.72
2018-09-09T11:24:05.712Z,101864.69
2018-09-09T11:26:33.409Z,101870.34
2018-09-09T11:29:01.144Z,101857.66
2018-09-09T11:31:28.856Z,101867.28
2018-09-09T11:33:56.577Z,101870.00
2018-09-09T11:36:24.371Z,101875.05
2018-09-09T11:38:52.063Z,101874.88
2018-09-09T11:41:19.776Z,101876.77
2018-09-09T11:43:47.528Z,101873.55
2018-09-09T11:46:15.235Z,101871.64
2018-09-09T11:48:43.045Z,101867.11
2018-09-09T11:51:10.760Z,101870.13
2018-09-09T11:53:38.479Z,101867.03
2018-09-09T11:56:06.749Z,101868.50
2018-09-09T11:58:34.581Z,101870.77
2018-09-09T12:01:02.354Z,101869.89
2018-09-09T12:03:30.156Z,101869.54
2018-09-09T12:05:57.866Z,101871.22
2018-09-09T12:08:25.557Z,101868.38
2018-09-09T12:10:53.292Z,101868.08
2018-09-09T12:13:21.064Z,101866.34
2018-09-09T12:15:48.769Z,101870.42
2018-09-09T12:18:16.517Z,101862.32
2018-09-09T12:20:44.240Z,101862.72
2018-09-09T12:23:11.991Z,101864.06
2018-09-09T12:25:39.757Z,101860.05
2018-09-09T12:28:07.537Z,101863.43
2018-09-09T12:30:35.246Z,101861.33
2018-09-09T12:33:03.014Z,101857.20
2018-09-09T12:35:30.702Z,101857.31
2018-09-09T12:37:58.426Z,101861.16
2018-09-09T12:40:26.128Z,101860.39
2018-09-09T12:42:58.333Z,101864.94
2018-09-09T12:45:31.772Z,101857.01
2018-09-09T12:48:04.972Z,101855.84
2018-09-09T12:50:32.673Z,101856.14
2018-09-09T12:53:00.364Z,101858.18
2018-09-09T12:55:28.137Z,101853.71
2018-09-09T12:57:55.848Z,101855.75
2018-09-09T13:00:23.594Z,101851.09
2018-09-09T13:02:51.347Z,101845.23
2018-09-09T13:05:19.045Z,101846.20
2018-09-09T13:07:46.752Z,101844.49
2018-09-09T13:10:14.465Z,101848.34
2018-09-09T13:12:47.827Z,101849.85
2018-09-09T13:15:15.555Z,101848.93
2018-09-09T13:17:43.292Z,101848.22
2018-09-09T13:20:11.080Z,101848.41
2018-09-09T13:22:38.901Z,101843.63
2018-09-09T13:25:06.687Z,101854.06
2018-09-09T13:27:34.413Z,101854.63
2018-09-09T13:30:02.224Z,101850.52
2018-09-09T13:32:29.952Z,101855.50
2018-09-09T13:34:57.648Z,101853.59
2018-09-09T13:37:25.412Z,101861.44
2018-09-09T13:39:53.096Z,101850.62
2018-09-09T13:42:20.834Z,101849.38
2018-09-09T13:44:48.593Z,101857.19
2018-09-09T13:47:16.316Z,101849.70
2018-09-09T13:49:44.060Z,101843.70
2018-09-09T13:52:11.856Z,101844.02
2018-09-09T13:54:39.575Z,101838.73
2018-09-09T13:57:07.279Z,101839.85
2018-09-09T13:59:35.017Z,101847.83
2018-09-09T14:02:02.753Z,101844.98
2018-09-09T14:04:30.521Z,101848.53
2018-09-09T14:06:58.255Z,101852.65
2018-09-09T14:09:25.992Z,101842.63
2018-09-09T14:11:53.716Z,101847.36
2018-09-09T14:14:21.413Z,101850.91
2018-09-09T14:16:49.133Z,101846.82
2018-09-09T14:19:16.896Z,101851.25
2018-09-09T14:21:44.611Z,101854.97
2018-09-09T14:24:12.332Z,101850.48
2018-09-09T14:26:40.095Z,101848.41
2018-09-09T14:29:07.801Z,101848.64
2018-09-09T14:31:35.611Z,101845.90
2018-09-09T14:34:03.346Z,101841.30
2018-09-09T14:36:31.856Z,101839.38
2018-09-09T14:38:59.639Z,101837.64
2018-09-09T14:41:27.389Z,101841.02
2018-09-09T14:43:55.124Z,101841.52
2018-09-09T14:46:22.854Z,101840.83
2018-09-09T14:48:50.540Z,101836.95
2018-09-09T14:51:18.340Z,101847.19
2018-09-09T14:53:46.113Z,101846.82
2018-09-09T14:56:13.903Z,101844.14
2018-09-09T14:58:41.844Z,101852.72
2018-09-09T15:01:09.652Z,101846.59
2018-09-09T15:03:37.384Z,101845.16
2018-09-09T15:06:05.161Z,101843.92
2018-09-09T15:08:33.033Z,101841.78
2018-09-09T15:11:01.536Z,101842.12
2018-09-09T15:13:29.286Z,101840.14
2018-09-09T15:15:57.208Z,101837.77
2018-09-09T15:18:24.921Z,101844.45
2018-09-09T15:20:52.679Z,101840.14
2018-09-09T15:23:20.457Z,101842.30
2018-09-09T15:25:48.180Z,101838.28
2018-09-09T15:28:15.964Z,101828.48
2018-09-09T15:30:43.892Z,101825.88
2018-09-09T15:33:11.648Z,101834.60
2018-09-09T15:35:39.425Z,101828.54
2018-09-09T15:38:07.165Z,101834.31
2018-09-09T15:40:35.005Z,101830.94
2018-09-09T15:43:02.722Z,101841.59
2018-09-09T15:45:30.505Z,101836.41
2018-09-09T15:47:58.271Z,101838.68
2018-09-09T15:50:25.970Z,101837.11
2018-09-09T15:52:53.688Z,101843.50
2018-09-09T15:55:21.447Z,101837.05
2018-09-09T15:57:49.224Z,101831.80
2018-09-09T16:00:16.991Z,101830.69
2018-09-09T16:02:44.755Z,101835.08
2018-09-09T16:05:13.290Z,101835.34
2018-09-09T16:07:41.032Z,101834.31
2018-09-09T16:10:08.840Z,101839.77
2018-09-09T16:12:36.588Z,101840.47
2018-09-09T16:15:04.432Z,101831.27
2018-09-09T16:17:32.148Z,101828.36
2018-09-09T16:19:59.864Z,101833.31
2018-09-09T16:22:27.628Z,101829.00
2018-09-09T16:24:55.356Z,101826.73
2018-09-09T16:27:23.112Z,101815.48
2018-09-09T16:29:50.839Z,101812.27
2018-09-09T16:32:18.588Z,101813.78
2018-09-09T16:34:46.370Z,101808.69
2018-09-09T16:37:14.132Z,101823.87
2018-09-09T16:39:42.036Z,101827.42
2018-09-09T16:42:09.819Z,101824.04
2018-09-09T16:44:37.658Z,101813.11
2018-09-09T16:47:05.444Z,101818.85
2018-09-09T16:49:33.184Z,101811.50
2018-09-09T16:52:00.911Z,101807.81
2018-09-09T16:54:28.640Z,101799.31
2018-09-09T16:56:56.439Z,101809.30
2018-09-09T16:59:24.189Z,101813.81
2018-09-09T17:01:52.099Z,101812.15
2018-09-09T17:04:19.899Z,101815.67
2018-09-09T17:06:47.620Z,101828.66
2018-09-09T17:09:15.392Z,101822.05
2018-09-09T17:11:43.110Z,101827.00
2018-09-09T17:14:10.938Z,101819.30
2018-09-09T17:16:38.644Z,101817.77
2018-09-09T17:19:06.412Z,101819.82
2018-09-09T17:21:34.195Z,101816.37
2018-09-09T17:24:02.007Z,101821.38
2018-09-09T17:26:29.748Z,101821.06
2018-09-09T17:28:57.463Z,101823.73
2018-09-09T17:31:25.210Z,101819.68
2018-09-09T17:33:52.941Z,101816.38
2018-09-09T17:36:20.660Z,101821.36
2018-09-09T17:38:48.452Z,101821.84
2018-09-09T17:41:16.180Z,101828.49
2018-09-09T17:43:43.899Z,101832.12
2018-09-09T17:46:11.663Z,101834.81
2018-09-09T17:48:39.401Z,101834.38
2018-09-09T17:51:07.141Z,101831.53
2018-09-09T17:53:35.459Z,101839.67
2018-09-09T17:56:03.166Z,101840.83
2018-09-09T17:58:30.909Z,101841.53
2018-09-09T18:00:58.666Z,101841.67
2018-09-09T18:03:27.284Z,101846.69
2018-09-09T18:05:55.009Z,101849.44
2018-09-09T18:08:22.744Z,101843.28
2018-09-09T18:10:50.451Z,101835.10
2018-09-09T18:13:18.163Z,101844.02
2018-09-09T18:15:45.944Z,101843.02
2018-09-09T18:18:13.656Z,101843.52
2018-09-09T18:20:42.086Z,101843.42
2018-09-09T18:23:09.816Z,101838.09
2018-09-09T18:25:37.502Z,101846.97
2018-09-09T18:28:05.343Z,101835.52
2018-09-09T18:30:33.242Z,101831.11
2018-09-09T18:33:01.017Z,101827.30
2018-09-09T18:35:29.084Z,101827.70
2018-09-09T18:37:56.817Z,101842.64
2018-09-09T18:40:24.524Z,101841.08
2018-09-09T18:42:52.283Z,101839.70
2018-09-09T18:45:20.025Z,101838.69
2018-09-09T18:47:47.772Z,101835.51
2018-09-09T18:50:15.544Z,101840.43
2018-09-09T18:52:43.316Z,101839.50
2018-09-09T18:55:10.996Z,101845.62
2018-09-09T18:57:38.751Z,101843.74
2018-09-09T19:00:06.689Z,101838.81
2018-09-09T19:02:34.352Z,101823.69
2018-09-09T19:05:02.078Z,101839.22
2018-09-09T19:07:29.777Z,101837.08
2018-09-09T19:09:57.714Z,101838.95
2018-09-09T19:12:25.415Z,101840.84
2018-09-09T19:14:53.200Z,101839.61
2018-09-09T19:17:20.936Z,101841.49
2018-09-09T19:19:48.640Z,101844.70
2018-09-09T19:22:16.385Z,101843.70
2018-09-09T19:24:44.180Z,101852.48
2018-09-09T19:27:11.871Z,101844.57
2018-09-09T19:29:39.576Z,101846.83
2018-09-09T19:32:07.413Z,101846.50
2018-09-09T19:34:35.154Z,101845.68
2018-09-09T19:37:02.872Z,101845.30
2018-09-09T19:39:30.612Z,101845.30
2018-09-09T19:41:58.348Z,101848.44
2018-09-09T19:44:26.099Z,101840.11
2018-09-09T19:46:53.829Z,101833.09
2018-09-09T19:49:21.592Z,101841.36
2018-09-09T19:51:49.480Z,101834.97
2018-09-09T19:54:17.237Z,101829.83
2018-09-09T19:56:44.992Z,101831.84
2018-09-09T19:59:12.763Z,101835.56
2018-09-09T20:01:40.558Z,101832.63
2018-09-09T20:04:08.454Z,101821.91
2018-09-09T20:06:36.199Z,101821.39
2018-09-09T20:09:05.656Z,101821.43
2018-09-09T20:11:33.354Z,101821.23
2018-09-09T20:14:01.122Z,101815.63
2018-09-09T20:16:28.920Z,101814.50
2018-09-09T20:18:56.643Z,101819.39
2018-09-09T20:21:24.347Z,101822.30
2018-09-09T20:23:52.122Z,101827.42
2018-09-09T20:26:19.836Z,101826.27
2018-09-09T20:28:47.531Z,101829.05
2018-09-09T20:31:15.292Z,101821.06
2018-09-09T20:33:43.016Z,101817.70
2018-09-09T20:36:10.783Z,101815.58
2018-09-09T20:38:38.568Z,101821.31
2018-09-09T20:41:06.338Z,101822.90
2018-09-09T20:43:34.135Z,101814.91
2018-09-09T20:46:01.897Z,101802.56
2018-09-09T20:48:29.821Z,101808.75
2018-09-09T20:50:57.528Z,101818.11
2018-09-09T20:53:25.248Z,101822.23
2018-09-09T20:55:52.915Z,101815.25
2018-09-09T20:58:20.646Z,101815.25
2018-09-09T21:00:48.317Z,101808.13
2018-09-09T21:03:16.041Z,101806.39
2018-09-09T21:05:43.745Z,101807.77
2018-09-09T21:08:11.489Z,101801.11
2018-09-09T21:10:39.227Z,101797.98
2018-09-09T21:13:06.974Z,101793.66
2018-09-09T21:15:34.731Z,101791.92
2018-09-09T21:18:02.496Z,101797.70
2018-09-09T21:20:30.195Z,101795.45
2018-09-09T21:22:57.935Z,101803.85
2018-09-09T21:25:25.724Z,101799.28
2018-09-09T21:27:53.460Z,101797.95
2018-09-09T21:30:21.186Z,101797.41
2018-09-09T21:32:48.918Z,101794.20
2018-09-09T21:35:16.616Z,101790.13
2018-09-09T21:40:23.931Z,101792.25
2018-09-09T21:42:51.640Z,101794.03
2018-09-09T21:45:19.392Z,101797.11
2018-09-09T21:47:47.117Z,101803.35
2018-09-09T21:50:14.823Z,101804.22
2018-09-09T21:52:42.673Z,101801.52
2018-09-09T21:55:10.373Z,101807.30
2018-09-09T21:57:38.096Z,101805.97
2018-09-09T22:00:08.565Z,101806.76
2018-09-09T22:02:36.420Z,101805.38
2018-09-09T22:05:04.169Z,101805.30
2018-09-09T22:07:31.902Z,101797.39
2018-09-09T22:09:59.581Z,101799.52
2018-09-09T22:12:27.264Z,101795.94
2018-09-09T22:14:55.027Z,101788.88
2018-09-09T22:17:23.447Z,101801.31
2018-09-09T22:19:51.187Z,101803.05
2018-09-09T22:22:18.965Z,101800.80
2018-09-09T22:24:46.664Z,101804.72
2018-09-09T22:27:14.356Z,101807.84
2018-09-09T22:29:42.108Z,101810.91
2018-09-09T22:32:09.905Z,101807.25
2018-09-09T22:34:37.748Z,101804.13
2018-09-09T22:37:05.472Z,101803.67
2018-09-09T22:39:33.207Z,101797.02
2018-09-09T22:42:00.916Z,101789.02
2018-09-09T22:44:28.633Z,101787.16
2018-09-09T22:46:56.357Z,101797.42
2018-09-09T22:49:24.096Z,101795.09
2018-09-09T22:51:51.847Z,101803.41
2018-09-09T22:54:19.587Z,101794.88
2018-09-09T22:56:47.291Z,101790.97
2018-09-09T22:59:14.993Z,101793.96
2018-09-09T23:01:42.701Z,101785.98
2018-09-09T23:04:10.473Z,101790.84
2018-09-09T23:06:38.180Z,101785.06
2018-09-09T23:09:08.289Z,101786.26
2018-09-09T23:11:36.047Z,101786.67
2018-09-09T23:14:03.783Z,101786.54
2018-09-09T23:16:31.495Z,101786.45
2018-09-09T23:18:59.262Z,101787.73
2018-09-09T23:21:26.978Z,101798.77
2018-09-09T23:23:54.717Z,101796.06
2018-09-09T23:26:22.448Z,101797.80
2018-09-09T23:28:50.428Z,101796.02
2018-09-09T23:31:18.129Z,101790.73
2018-09-09T23:33:45.836Z,101791.06
2018-09-09T23:36:13.671Z,101787.48
2018-09-09T23:38:41.371Z,101790.05
2018-09-09T23:41:09.096Z,101787.75
2018-09-09T23:43:36.832Z,101789.41
2018-09-09T23:46:04.565Z,101795.16
2018-09-09T23:48:32.307Z,101788.03
2018-09-09T23:51:00.055Z,101791.48
2018-09-09T23:53:27.756Z,101794.02
2018-09-09T23:55:55.487Z,101800.22
2018-09-09T23:58:23.188Z,101802.42
